createdAt,value
2023-05-10T00:02:12.452Z,3.87
2023-05-10T00:05:14.534Z,4.33
2023-05-10T00:08:16.492Z,3.00
2023-05-10T00:11:18.995Z,2.90
2023-05-10T00:14:22.008Z,3.80
2023-05-10T00:17:24.266Z,3.33
2023-05-10T00:20:26.287Z,3.77
2023-05-10T00:23:28.166Z,2.97
2023-05-10T00:26:30.133Z,3.80
2023-05-10T00:29:32.942Z,3.70
2023-05-10T00:32:34.936Z,3.90
2023-05-10T00:35:37.305Z,3.70
2023-05-10T00:38:39.380Z,3.83
2023-05-10T00:41:41.774Z,3.60
2023-05-10T00:44:43.750Z,3.27
2023-05-10T00:47:45.792Z,3.30
2023-05-10T00:50:48.214Z,3.50
2023-05-10T00:53:51.555Z,3.20
2023-05-10T00:56:53.682Z,3.20
2023-05-10T00:59:57.435Z,3.47
2023-05-10T01:02:59.644Z,3.90
2023-05-10T01:06:01.599Z,3.37
2023-05-10T01:09:03.674Z,3.17
2023-05-10T01:12:08.104Z,4.20
2023-05-10T01:15:10.906Z,4.17
2023-05-10T01:18:12.849Z,4.50
2023-05-10T01:21:34.881Z,4.00
2023-05-10T01:24:58.800Z,4.23
2023-05-10T01:28:27.106Z,4.30
2023-05-10T01:31:38.224Z,3.00
2023-05-10T01:35:21.118Z,3.80
2023-05-10T01:38:42.420Z,3.30
2023-05-10T01:41:51.485Z,2.60
2023-05-10T01:45:01.720Z,2.73
2023-05-10T01:48:08.013Z,2.97
2023-05-10T01:51:10.767Z,2.20
2023-05-10T01:54:14.057Z,1.50
2023-05-10T01:57:18.075Z,1.60
2023-05-10T02:00:20.700Z,2.07
2023-05-10T02:03:25.299Z,1.43
2023-05-10T02:06:28.470Z,1.70
2023-05-10T02:09:31.428Z,1.17
2023-05-10T02:12:37.675Z,1.00
2023-05-10T02:15:40.244Z,1.00
2023-05-10T02:18:42.949Z,1.60
2023-05-10T02:21:45.852Z,1.10
2023-05-10T02:24:48.416Z,1.20
2023-05-10T02:27:51.703Z,0.90
2023-05-10T02:30:54.503Z,0.80
2023-05-10T02:33:56.826Z,1.03
2023-05-10T02:37:00.443Z,1.07
2023-05-10T02:40:04.507Z,1.40
2023-05-10T02:43:08.309Z,1.60
2023-05-10T02:46:10.384Z,2.50
2023-05-10T02:49:13.005Z,2.20
2023-05-10T02:52:18.232Z,3.00
2023-05-10T02:55:26.770Z,3.20
2023-05-10T02:58:28.752Z,2.70
2023-05-10T03:01:30.764Z,3.10
2023-05-10T03:04:32.726Z,2.47
2023-05-10T03:07:34.999Z,3.00
2023-05-10T03:10:43.304Z,3.20
2023-05-10T03:14:19.082Z,3.67
2023-05-10T03:17:30.979Z,3.30
2023-05-10T03:20:37.670Z,2.80
2023-05-10T03:24:01.257Z,2.40
2023-05-10T03:27:06.187Z,2.50
2023-05-10T03:30:10.313Z,3.00
2023-05-10T03:33:12.291Z,3.37
2023-05-10T03:36:14.243Z,2.87
2023-05-10T03:39:17.070Z,2.00
2023-05-10T03:42:19.325Z,2.53
2023-05-10T03:45:21.245Z,1.97
2023-05-10T03:48:23.164Z,2.07
2023-05-10T03:51:29.751Z,2.57
2023-05-10T03:54:31.686Z,2.03
2023-05-10T03:57:33.637Z,2.00
2023-05-10T04:00:36.338Z,2.40
2023-05-10T04:03:38.337Z,1.60
2023-05-10T04:06:40.374Z,1.80
2023-05-10T04:09:43.356Z,1.20
2023-05-10T04:12:45.288Z,1.40
2023-05-10T04:15:47.202Z,1.83
2023-05-10T04:18:49.875Z,2.33
2023-05-10T04:21:51.762Z,3.40
2023-05-10T04:24:54.252Z,3.60
2023-05-10T04:27:56.338Z,4.20
2023-05-10T04:31:05.216Z,3.83
2023-05-10T04:34:07.336Z,4.10
2023-05-10T04:37:09.181Z,3.30
2023-05-10T04:40:11.487Z,3.50
2023-05-10T04:43:14.555Z,3.90
2023-05-10T04:46:16.854Z,3.80
2023-05-10T04:49:19.117Z,4.07
2023-05-10T04:52:21.646Z,4.00
2023-05-10T04:55:23.608Z,3.87
2023-05-10T04:58:26.174Z,4.57
2023-05-10T05:01:28.351Z,5.23
2023-05-10T05:04:31.675Z,4.83
2023-05-10T05:07:33.907Z,4.13
2023-05-10T05:10:36.214Z,4.10
2023-05-10T05:13:38.654Z,4.07
2023-05-10T05:16:40.680Z,4.57
2023-05-10T05:19:42.786Z,5.03
2023-05-10T05:22:44.651Z,4.63
2023-05-10T05:25:46.567Z,4.67
2023-05-10T05:28:49.677Z,5.07
2023-05-10T05:31:53.421Z,4.53
2023-05-10T05:34:56.749Z,4.17
2023-05-10T05:37:58.658Z,3.57
2023-05-10T05:41:00.716Z,3.73
2023-05-10T05:44:02.633Z,3.17
2023-05-10T05:47:04.829Z,3.20
2023-05-10T05:50:07.488Z,3.03
2023-05-10T05:53:10.171Z,3.00
2023-05-10T05:56:12.070Z,2.67
2023-05-10T05:59:13.936Z,2.87
2023-05-10T06:02:15.814Z,2.97
2023-05-10T06:05:18.173Z,3.13
2023-05-10T06:08:20.270Z,3.40
2023-05-10T06:11:26.157Z,3.83
2023-05-10T06:14:28.776Z,4.50
2023-05-10T06:17:30.947Z,4.30
2023-05-10T06:20:32.950Z,3.73
2023-05-10T06:23:35.118Z,4.13
2023-05-10T06:26:36.979Z,4.50
2023-05-10T06:29:39.070Z,3.53
2023-05-10T06:32:41.150Z,3.63
2023-05-10T06:35:43.118Z,2.80
2023-05-10T06:38:45.121Z,3.00
2023-05-10T06:41:47.209Z,2.37
2023-05-10T06:44:49.335Z,2.43
2023-05-10T06:47:51.380Z,2.63
2023-05-10T06:50:53.274Z,2.53
2023-05-10T06:53:55.453Z,2.40
2023-05-10T06:56:58.046Z,3.20
2023-05-10T07:00:01.012Z,3.60
2023-05-10T07:03:02.923Z,3.47
2023-05-10T07:06:06.111Z,3.57
2023-05-10T07:09:08.976Z,3.00
2023-05-10T07:12:13.468Z,3.00
2023-05-10T07:15:17.587Z,2.67
2023-05-10T07:18:19.821Z,2.77
2023-05-10T07:21:22.269Z,2.60
2023-05-10T07:24:24.775Z,2.77
2023-05-10T07:27:26.820Z,2.37
2023-05-10T07:30:29.043Z,1.87
2023-05-10T07:33:31.230Z,2.07
2023-05-10T07:36:33.747Z,2.07
2023-05-10T07:39:35.693Z,1.80
2023-05-10T07:42:38.144Z,1.80
2023-05-10T07:45:40.109Z,1.30
2023-05-10T07:48:43.095Z,1.40
2023-05-10T07:51:45.059Z,1.87
2023-05-10T07:54:47.305Z,1.60
2023-05-10T07:57:49.322Z,1.60
2023-05-10T08:00:51.595Z,2.20
2023-05-10T08:03:56.183Z,1.60
2023-05-10T08:06:58.184Z,1.53
2023-05-10T08:10:00.197Z,1.70
2023-05-10T08:13:02.909Z,1.00
2023-05-10T08:16:04.949Z,1.30
2023-05-10T08:19:07.402Z,1.43
2023-05-10T08:22:09.629Z,1.17
2023-05-10T08:25:11.625Z,1.30
2023-05-10T08:28:13.517Z,1.10
2023-05-10T08:31:17.188Z,1.10
2023-05-10T08:34:19.084Z,1.07
2023-05-10T08:37:21.776Z,1.30
2023-05-10T08:40:25.810Z,0.90
2023-05-10T08:43:32.055Z,1.10
2023-05-10T08:46:40.821Z,0.93
2023-05-10T08:49:44.106Z,1.20
2023-05-10T08:52:46.866Z,1.20
2023-05-10T08:55:49.156Z,1.13
2023-05-10T08:58:51.861Z,0.80
2023-05-10T09:01:55.396Z,0.60
2023-05-10T09:04:58.381Z,0.90
2023-05-10T09:08:03.913Z,0.30
2023-05-10T09:11:06.735Z,0.40
2023-05-10T09:14:08.714Z,0.30
2023-05-10T09:17:11.312Z,0.40
2023-05-10T09:20:13.774Z,0.43
2023-05-10T09:23:15.694Z,0.57
2023-05-10T09:26:17.656Z,0.87
2023-05-10T09:29:20.377Z,0.70
2023-05-10T09:32:22.530Z,0.30
2023-05-10T09:35:29.503Z,0.20
2023-05-10T09:38:47.007Z,0.43
2023-05-10T09:41:49.586Z,0.43
2023-05-10T09:44:51.529Z,0.57
2023-05-10T09:47:53.609Z,0.60
2023-05-10T09:50:59.063Z,0.40
2023-05-10T09:54:17.741Z,0.30
2023-05-10T09:57:24.080Z,0.50
2023-05-10T10:00:28.443Z,0.50
2023-05-10T10:03:31.316Z,0.43
2023-05-10T10:06:40.256Z,0.30
2023-05-10T10:09:42.742Z,0.40
2023-05-10T10:12:45.996Z,0.90
2023-05-10T10:15:52.377Z,0.40
2023-05-10T10:18:54.491Z,0.30
2023-05-10T10:21:56.469Z,0.37
2023-05-10T10:24:59.034Z,0.30
2023-05-10T10:28:12.478Z,0.30
2023-05-10T10:31:30.204Z,0.30
2023-05-10T10:34:32.796Z,0.53
2023-05-10T10:37:48.589Z,0.30
2023-05-10T10:41:04.213Z,0.20
2023-05-10T10:44:28.650Z,0.40
2023-05-10T10:47:34.203Z,0.40
2023-05-10T10:50:45.887Z,0.27
2023-05-10T10:53:49.563Z,0.50
2023-05-10T10:57:14.869Z,0.40
2023-05-10T11:00:29.385Z,0.40
2023-05-10T11:03:31.475Z,0.40
2023-05-10T11:06:35.623Z,0.70
2023-05-10T11:09:41.318Z,0.30
2023-05-10T11:13:02.192Z,0.40
2023-05-10T11:16:19.465Z,0.60
2023-05-10T11:19:21.619Z,0.40
2023-05-10T11:22:26.908Z,0.30
2023-05-10T11:25:29.495Z,0.47
2023-05-10T11:28:31.700Z,0.40
2023-05-10T11:31:33.925Z,0.57
2023-05-10T11:34:35.821Z,0.52
2023-05-10T11:37:39.291Z,0.40
2023-05-10T11:40:42.316Z,0.40
2023-05-10T11:43:44.735Z,0.27
2023-05-10T11:46:46.806Z,0.40
2023-05-10T11:49:50.140Z,0.43
2023-05-10T11:52:53.614Z,0.40
2023-05-10T11:55:55.933Z,0.60
2023-05-10T11:58:58.675Z,0.30
2023-05-10T12:02:01.249Z,1.10
2023-05-10T12:05:04.733Z,0.30
2023-05-10T12:08:21.340Z,0.50
2023-05-10T12:11:27.209Z,0.20
2023-05-10T12:14:30.012Z,0.40
2023-05-10T12:17:31.991Z,0.40
2023-05-10T12:20:33.860Z,0.50
2023-05-10T12:23:35.916Z,0.40
2023-05-10T12:26:38.080Z,0.30
2023-05-10T12:29:45.713Z,0.37
2023-05-10T12:32:48.811Z,0.40
2023-05-10T12:35:55.912Z,0.50
2023-05-10T12:39:04.308Z,0.40
2023-05-10T12:42:06.273Z,0.60
2023-05-10T12:45:10.080Z,0.40
2023-05-10T12:48:11.941Z,0.80
2023-05-10T12:51:16.896Z,0.50
2023-05-10T12:54:18.948Z,1.23
2023-05-10T12:57:23.952Z,0.50
2023-05-10T13:00:26.087Z,0.50
2023-05-10T13:03:28.090Z,0.60
2023-05-10T13:06:30.088Z,0.60
2023-05-10T13:09:32.025Z,1.07
2023-05-10T13:12:34.309Z,0.60
2023-05-10T13:15:36.599Z,0.60
2023-05-10T13:18:38.468Z,0.77
2023-05-10T13:21:42.342Z,0.60
2023-05-10T13:24:44.320Z,0.50
2023-05-10T13:27:46.472Z,0.67
2023-05-10T13:30:48.275Z,0.60
2023-05-10T13:33:50.197Z,0.50
2023-05-10T13:36:52.206Z,0.60
2023-05-10T13:39:54.128Z,0.60
2023-05-10T13:42:55.989Z,0.80
2023-05-10T13:45:58.102Z,0.50
2023-05-10T13:49:01.116Z,0.40
2023-05-10T13:52:08.062Z,0.70
2023-05-10T13:55:10.053Z,0.53
2023-05-10T13:58:12.020Z,0.60
2023-05-10T14:01:13.917Z,0.30
2023-05-10T14:04:15.977Z,0.40
2023-05-10T14:07:17.813Z,0.50
2023-05-10T14:10:19.966Z,0.40
2023-05-10T14:13:22.217Z,0.40
2023-05-10T14:16:24.175Z,0.53
2023-05-10T14:19:26.589Z,0.50
2023-05-10T14:22:28.503Z,0.67
2023-05-10T14:25:30.504Z,0.73
2023-05-10T14:28:32.799Z,0.90
2023-05-10T14:31:34.842Z,0.83
2023-05-10T14:34:36.782Z,0.50
2023-05-10T14:37:38.923Z,0.70
2023-05-10T14:40:40.735Z,0.80
2023-05-10T14:43:43.213Z,0.70
2023-05-10T14:46:45.138Z,0.90
2023-05-10T14:49:47.148Z,0.90
2023-05-10T14:52:49.155Z,2.07
2023-05-10T14:55:51.182Z,1.83
2023-05-10T14:58:53.055Z,2.17
2023-05-10T15:01:55.327Z,0.80
2023-05-10T15:04:58.944Z,0.70
2023-05-10T15:08:01.969Z,0.60
2023-05-10T15:11:04.301Z,0.60
2023-05-10T15:14:06.781Z,0.83
2023-05-10T15:17:09.623Z,0.80
2023-05-10T15:20:12.046Z,0.80
2023-05-10T15:23:17.337Z,1.00
2023-05-10T15:26:19.878Z,0.90
2023-05-10T15:29:21.946Z,0.40
2023-05-10T15:32:23.939Z,0.70
2023-05-10T15:35:27.231Z,0.80
2023-05-10T15:38:29.151Z,1.00
2023-05-10T15:41:31.343Z,0.70
2023-05-10T15:44:34.881Z,0.70
2023-05-10T15:47:37.370Z,0.80
2023-05-10T15:50:41.402Z,0.80
2023-05-10T15:53:56.449Z,0.80
2023-05-10T15:57:03.058Z,0.70
2023-05-10T16:00:06.088Z,0.60
2023-05-10T16:03:08.954Z,0.60
2023-05-10T16:06:10.849Z,0.40
2023-05-10T16:09:12.838Z,0.20
2023-05-10T16:12:14.890Z,0.50
2023-05-10T16:15:17.097Z,0.37
2023-05-10T16:18:19.894Z,0.40
2023-05-10T16:21:22.549Z,0.50
2023-05-10T16:24:24.491Z,0.50
2023-05-10T16:27:28.924Z,0.40
2023-05-10T16:30:31.008Z,0.60
2023-05-10T16:33:32.845Z,0.40
2023-05-10T16:36:35.632Z,0.90
2023-05-10T16:39:37.577Z,0.50
2023-05-10T16:42:39.529Z,0.60
2023-05-10T16:45:42.386Z,1.03
2023-05-10T16:48:44.364Z,0.70
2023-05-10T16:51:46.422Z,0.40
2023-05-10T16:54:48.376Z,0.40
2023-05-10T16:57:50.792Z,0.40
2023-05-10T17:00:54.018Z,0.53
2023-05-10T17:03:56.270Z,0.37
2023-05-10T17:06:58.861Z,0.30
2023-05-10T17:10:00.777Z,0.50
2023-05-10T17:13:03.294Z,0.50
2023-05-10T17:16:05.388Z,0.53
2023-05-10T17:19:08.904Z,0.30
2023-05-10T17:22:11.920Z,0.30
2023-05-10T17:25:14.186Z,0.40
2023-05-10T17:28:16.026Z,0.30
2023-05-10T17:31:18.708Z,0.30
2023-05-10T17:34:22.118Z,0.30
2023-05-10T17:37:24.804Z,0.40
2023-05-10T17:40:26.681Z,0.40
2023-05-10T17:43:28.645Z,0.50
2023-05-10T17:46:30.601Z,0.60
2023-05-10T17:49:32.531Z,0.60
2023-05-10T17:52:34.474Z,0.80
2023-05-10T17:55:37.110Z,0.80
2023-05-10T17:58:38.954Z,0.50
2023-05-10T18:01:41.910Z,0.83
2023-05-10T18:04:44.088Z,0.60
2023-05-10T18:07:46.463Z,0.87
2023-05-10T18:10:49.007Z,0.73
2023-05-10T18:13:51.124Z,0.70
2023-05-10T18:16:55.986Z,0.60
2023-05-10T18:19:57.985Z,1.00
2023-05-10T18:22:59.914Z,1.20
2023-05-10T18:26:02.641Z,0.90
2023-05-10T18:29:04.585Z,0.80
2023-05-10T18:32:07.047Z,0.70
2023-05-10T18:35:10.115Z,0.90
2023-05-10T18:38:12.838Z,1.00
2023-05-10T18:41:14.976Z,0.93
2023-05-10T18:44:19.106Z,0.80
2023-05-10T18:47:26.028Z,0.80
2023-05-10T18:50:29.170Z,0.67
2023-05-10T18:53:34.682Z,0.70
2023-05-10T18:56:37.244Z,0.60
2023-05-10T18:59:41.322Z,0.80
2023-05-10T19:02:43.257Z,0.63
2023-05-10T19:05:49.152Z,0.77
2023-05-10T19:09:02.779Z,0.83
2023-05-10T19:12:06.915Z,0.67
2023-05-10T19:15:15.925Z,0.33
2023-05-10T19:18:21.383Z,0.40
2023-05-10T19:21:24.689Z,0.60
2023-05-10T19:24:27.325Z,0.80
2023-05-10T19:27:30.845Z,0.40
2023-05-10T19:30:35.508Z,0.50
2023-05-10T19:33:38.750Z,0.30
2023-05-10T19:36:41.228Z,0.40
2023-05-10T19:39:46.604Z,0.40
2023-05-10T19:42:48.658Z,0.40
2023-05-10T19:45:52.344Z,0.30
2023-05-10T19:48:54.482Z,0.50
2023-05-10T19:51:56.691Z,0.70
2023-05-10T19:54:59.641Z,0.87
2023-05-10T19:58:02.111Z,0.40
2023-05-10T20:01:06.066Z,0.57
2023-05-10T20:04:08.328Z,0.40
2023-05-10T20:07:11.154Z,0.60
2023-05-10T20:10:13.073Z,0.30
2023-05-10T20:13:15.086Z,0.50
2023-05-10T20:16:18.970Z,0.50
2023-05-10T20:19:21.077Z,0.20
2023-05-10T20:22:22.973Z,0.40
2023-05-10T20:25:24.895Z,0.60
2023-05-10T20:28:27.364Z,0.50
2023-05-10T20:31:29.365Z,0.57
2023-05-10T20:34:31.438Z,0.73
2023-05-10T20:37:33.360Z,0.40
2023-05-10T20:40:35.476Z,0.30
2023-05-10T20:43:37.877Z,0.50
2023-05-10T20:46:39.921Z,0.37
2023-05-10T20:49:42.175Z,0.30
2023-05-10T20:52:44.146Z,0.47
2023-05-10T20:55:46.041Z,1.00
2023-05-10T20:58:48.564Z,0.30
2023-05-10T21:01:50.734Z,0.40
2023-05-10T21:04:53.330Z,0.50
2023-05-10T21:07:56.344Z,0.33
2023-05-10T21:10:58.925Z,0.60
2023-05-10T21:14:01.034Z,0.53
2023-05-10T21:17:02.924Z,0.40
2023-05-10T21:20:05.565Z,0.50
2023-05-10T21:23:07.496Z,0.70
2023-05-10T21:26:09.701Z,0.50
2023-05-10T21:29:12.547Z,0.40
2023-05-10T21:32:15.106Z,0.30
2023-05-10T21:35:17.825Z,0.30
2023-05-10T21:38:20.143Z,0.50
2023-05-10T21:41:22.816Z,0.40
2023-05-10T21:44:24.845Z,0.57
2023-05-10T21:47:26.813Z,0.50
2023-05-10T21:50:29.075Z,0.60
2023-05-10T21:53:30.996Z,0.40
2023-05-10T21:56:32.885Z,0.20
2023-05-10T21:59:34.747Z,0.40
2023-05-10T22:02:36.894Z,0.70
2023-05-10T22:05:39.370Z,0.70
2023-05-10T22:08:41.213Z,1.20
2023-05-10T22:11:43.132Z,1.20
2023-05-10T22:14:45.195Z,0.90
2023-05-10T22:17:47.332Z,0.57
2023-05-10T22:20:49.268Z,0.40
2023-05-10T22:23:51.326Z,0.20
2023-05-10T22:26:56.583Z,0.40
2023-05-10T22:29:58.946Z,0.20
2023-05-10T22:33:00.790Z,0.30
2023-05-10T22:36:02.679Z,0.40
2023-05-10T22:39:04.630Z,0.30
2023-05-10T22:42:07.068Z,0.50
2023-05-10T22:45:09.640Z,0.40
2023-05-10T22:48:11.683Z,0.43
2023-05-10T22:51:13.532Z,0.40
2023-05-10T22:54:17.680Z,0.50
2023-05-10T22:57:19.753Z,0.40
2023-05-10T23:00:21.643Z,0.50
2023-05-10T23:03:23.647Z,0.40
2023-05-10T23:06:25.651Z,0.43
2023-05-10T23:09:27.496Z,0.47
2023-05-10T23:12:31.520Z,0.40
2023-05-10T23:15:33.746Z,0.30
2023-05-10T23:18:35.618Z,0.30
2023-05-10T23:21:37.528Z,0.37
2023-05-10T23:24:39.551Z,0.50
2023-05-10T23:27:42.336Z,0.43
2023-05-10T23:30:44.549Z,0.27
2023-05-10T23:33:46.430Z,0.30
2023-05-10T23:36:48.331Z,0.33
2023-05-10T23:39:50.307Z,0.20
2023-05-10T23:42:52.126Z,0.30
2023-05-10T23:45:58.331Z,0.40
2023-05-10T23:49:00.547Z,0.40
2023-05-10T23:52:02.519Z,0.40
2023-05-10T23:55:04.608Z,0.30
2023-05-10T23:58:06.721Z,0.43
